Time;durP1;ratioP1;P1;durP2;ratioP2;P2;SDS_P1;SDS_P2;PMS_P1;PMS_P2;Temp;Humidity;BMP_temperature;BMP_pressure;BME280_temperature;BME280_humidity;BME280_pressure;Samples;Min_cycle;Max_cycle;Signal;HPM_P1;HPM_P2
2022/08/14 00:01:40;;;;;;;19.30;10.20;;;;;;;18.85;87.14;100109.12;105776;1271;24415;-53
2022/08/14 00:04:12;;;;;;;20.20;10.40;;;;;;;18.87;87.66;100100.25;105873;1270;24342;-54
2022/08/14 00:06:43;;;;;;;18.30;10.90;;;;;;;18.88;88.14;100102.21;105589;1271;22621;-56
2022/08/14 00:09:15;;;;;;;21.90;11.30;;;;;;;18.88;88.48;100094.46;105683;1270;24381;-52
2022/08/14 00:11:46;;;;;;;16.50;9.00;;;;;;;18.88;88.63;100088.39;105687;1270;22605;-55
2022/08/14 00:14:19;;;;;;;21.40;9.70;;;;;;;18.87;88.76;100083.31;105735;1270;22612;-55
2022/08/14 00:16:51;;;;;;;12.90;7.00;;;;;;;18.86;89.06;100080.20;105706;1270;22626;-52
2022/08/14 00:19:23;;;;;;;14.00;6.80;;;;;;;18.82;89.10;100081.39;105710;1270;22691;-57
2022/08/14 00:21:55;;;;;;;15.50;8.40;;;;;;;18.81;89.00;100077.98;105719;1270;25386;-54
2022/08/14 00:24:26;;;;;;;16.20;8.40;;;;;;;18.79;88.92;100076.92;105642;1271;22640;-55
2022/08/14 00:26:59;;;;;;;17.20;9.30;;;;;;;18.76;89.01;100070.52;105658;1270;22538;-56
2022/08/14 00:29:31;;;;;;;21.00;9.40;;;;;;;18.75;89.08;100067.63;105866;1271;22953;-54
2022/08/14 00:32:04;;;;;;;17.90;9.60;;;;;;;18.75;89.31;100068.80;105727;1270;25775;-51
2022/08/14 00:34:35;;;;;;;16.50;8.60;;;;;;;18.75;89.36;100068.10;105695;1270;24215;-55
2022/08/14 00:37:08;;;;;;;20.00;10.50;;;;;;;18.76;89.43;100069.81;105638;1270;23742;-55
2022/08/14 00:39:39;;;;;;;20.10;10.50;;;;;;;18.78;89.64;100067.27;105811;1270;22545;-54
2022/08/14 00:42:11;;;;;;;19.70;9.80;;;;;;;18.79;89.78;100064.02;105648;1270;24422;-55
2022/08/14 00:44:43;;;;;;;20.80;12.00;;;;;;;18.79;90.00;100060.52;105586;1271;25420;-51
2022/08/14 00:47:16;;;;;;;19.80;11.60;;;;;;;18.79;90.33;100054.89;105862;1270;22622;-54
2022/08/14 00:49:49;;;;;;;21.50;12.00;;;;;;;18.79;90.53;100052.64;105867;1270;25425;-52
2022/08/14 00:52:23;;;;;;;18.50;10.50;;;;;;;18.78;90.64;100049.38;105970;1270;25338;-54
2022/08/14 00:54:55;;;;;;;22.50;11.80;;;;;;;18.75;90.98;100045.25;105887;1270;24219;-51
2022/08/14 00:57:29;;;;;;;21.30;10.60;;;;;;;18.72;91.08;100046.40;105735;1270;25494;-53
2022/08/14 01:00:02;;;;;;;20.00;10.80;;;;;;;18.68;90.93;100042.98;106050;1270;25351;-55
2022/08/14 01:02:36;;;;;;;18.90;9.80;;;;;;;18.67;90.84;100046.99;105799;1270;22596;-54
2022/08/14 01:05:22;;;;;;;18.10;10.40;;;;;;;18.67;90.77;100043.48;105834;1270;22615;-53
2022/08/14 01:07:57;;;;;;;22.20;10.70;;;;;;;18.66;90.81;100046.23;105775;1270;22695;-54
2022/08/14 01:13:18;;;;;;;18.70;10.30;;;;;;;18.69;90.93;100048.61;105789;1270;22554;-54
2022/08/14 01:15:53;;;;;;;17.40;9.20;;;;;;;18.70;91.15;100044.41;105755;1270;22528;-56
2022/08/14 01:21:15;;;;;;;19.70;11.30;;;;;;;18.76;91.16;100049.52;105674;1270;24381;-51
2022/08/14 01:23:50;;;;;;;18.20;10.90;;;;;;;18.78;91.20;100048.92;105968;1270;23078;-53
2022/08/14 01:26:26;;;;;;;23.30;9.90;;;;;;;18.80;91.34;100046.73;105786;1270;25355;-55
2022/08/14 01:29:01;;;;;;;19.50;10.70;;;;;;;18.81;91.29;100048.19;105830;1270;22574;-55
2022/08/14 01:31:34;;;;;;;19.30;11.20;;;;;;;18.84;91.45;100047.33;105892;1270;24225;-52
2022/08/14 01:34:07;;;;;;;20.80;12.10;;;;;;;18.87;91.38;100044.43;105915;1270;22550;-55
2022/08/14 01:36:38;;;;;;;20.70;12.10;;;;;;;18.90;91.44;100043.16;105951;1270;22716;-51
2022/08/14 01:39:12;;;;;;;19.80;11.30;;;;;;;18.92;91.33;100042.23;105911;1270;25417;-56
2022/08/14 01:41:54;;;;;;;20.40;12.30;;;;;;;18.92;91.48;100042.63;105879;1270;23038;-54
2022/08/14 01:44:28;;;;;;;25.80;12.50;;;;;;;18.94;91.58;100039.83;105770;1270;22695;-54
2022/08/14 01:47:02;;;;;;;19.70;11.40;;;;;;;18.96;91.62;100040.77;105920;1270;22546;-55
2022/08/14 01:49:33;;;;;;;18.60;10.70;;;;;;;18.97;91.58;100038.40;106041;1270;26510;-50
2022/08/14 01:52:07;;;;;;;20.50;11.80;;;;;;;18.97;91.49;100041.73;105952;1270;25387;-52
2022/08/14 01:54:39;;;;;;;21.30;11.40;;;;;;;18.98;91.46;100037.97;105873;1270;24227;-53
2022/08/14 01:57:10;;;;;;;22.30;12.20;;;;;;;18.99;91.51;100041.08;105826;1271;23364;-55
2022/08/14 01:59:43;;;;;;;20.70;12.40;;;;;;;19.00;91.37;100042.20;105885;1270;22576;-53
2022/08/14 02:02:15;;;;;;;22.70;12.40;;;;;;;19.01;91.50;100041.00;105791;1270;22686;-54
2022/08/14 02:04:46;;;;;;;18.60;11.20;;;;;;;19.02;91.57;100041.27;105829;1270;22599;-52
2022/08/14 02:07:19;;;;;;;20.40;11.90;;;;;;;19.02;91.53;100044.00;105769;1270;22558;-50
2022/08/14 02:09:51;;;;;;;20.80;11.00;;;;;;;19.01;91.55;100039.65;105896;1270;24381;-54
2022/08/14 02:12:23;;;;;;;21.10;11.40;;;;;;;19.01;91.61;100035.95;105820;1270;25248;-51
2022/08/14 02:14:55;;;;;;;20.20;12.10;;;;;;;19.01;91.60;100032.05;105885;1270;25205;-55
2022/08/14 02:17:27;;;;;;;22.00;12.30;;;;;;;18.99;91.58;100031.88;105862;1270;24228;-53
2022/08/14 02:19:58;;;;;;;19.00;10.10;;;;;;;18.97;91.43;100030.27;105760;1270;22615;-56
2022/08/14 02:22:30;;;;;;;18.00;11.10;;;;;;;18.96;91.49;100032.28;105840;1270;25631;-52
2022/08/14 02:25:01;;;;;;;20.90;11.50;;;;;;;18.95;91.62;100028.71;105746;1270;22573;-55
2022/08/14 02:27:33;;;;;;;20.90;11.20;;;;;;;18.93;91.78;100021.55;105863;1270;22730;-53
2022/08/14 02:30:07;;;;;;;20.40;11.20;;;;;;;18.91;91.46;100027.64;105903;1270;22621;-52
2022/08/14 02:32:39;;;;;;;18.80;10.50;;;;;;;18.91;91.30;100020.54;105805;1270;24415;-54
2022/08/14 02:35:16;;;;;;;20.10;10.80;;;;;;;18.89;91.50;100020.02;105812;1270;22551;-51
2022/08/14 02:37:49;;;;;;;18.40;10.10;;;;;;;18.86;91.24;100011.75;105749;1270;22615;-54
2022/08/14 02:40:21;;;;;;;18.20;10.50;;;;;;;18.83;91.05;100010.65;106096;1270;24293;-50
2022/08/14 02:42:55;;;;;;;18.90;10.80;;;;;;;18.81;90.79;100005.67;105880;1270;22579;-53
2022/08/14 02:45:32;;;;;;;18.80;9.80;;;;;;;18.77;90.81;100003.21;105978;1270;25300;-52
2022/08/14 02:48:06;;;;;;;18.80;10.20;;;;;;;18.74;90.54;100000.27;105829;1270;22547;-51
2022/08/14 02:50:37;;;;;;;20.10;10.20;;;;;;;18.70;90.54;99997.79;105873;1271;22655;-54
2022/08/14 02:53:10;;;;;;;19.50;9.90;;;;;;;18.68;90.61;99998.05;105885;1270;22550;-55
2022/08/14 02:55:43;;;;;;;16.40;9.30;;;;;;;18.66;90.58;100004.51;105880;1271;25239;-54
2022/08/14 02:58:16;;;;;;;18.40;9.80;;;;;;;18.63;90.78;99996.27;105859;1270;24221;-55
2022/08/14 03:00:48;;;;;;;17.30;9.00;;;;;;;18.61;90.59;99995.55;105769;1270;24260;-54
2022/08/14 03:03:22;;;;;;;18.20;10.10;;;;;;;18.55;90.36;99996.25;105856;1270;22676;-52
2022/08/14 03:05:55;;;;;;;22.20;9.40;;;;;;;18.49;90.34;99999.29;105890;1270;22525;-54
2022/08/14 03:08:32;;;;;;;19.80;9.30;;;;;;;18.46;90.25;99997.84;105851;1270;25418;-53
2022/08/14 03:11:06;;;;;;;20.80;10.60;;;;;;;18.42;90.07;100000.47;105662;1270;22636;-53
2022/08/14 03:13:39;;;;;;;19.20;10.60;;;;;;;18.38;90.18;99995.59;106025;1270;22612;-55
2022/08/14 03:16:13;;;;;;;18.40;9.90;;;;;;;18.33;90.19;99992.48;106578;1258;22544;-65
2022/08/14 03:18:47;;;;;;;20.80;10.60;;;;;;;18.30;90.35;99991.30;106164;1270;22695;-65
2022/08/14 03:21:20;;;;;;;17.10;10.00;;;;;;;18.27;90.17;99991.67;106256;1270;22634;-65
2022/08/14 03:24:01;;;;;;;19.70;10.70;;;;;;;18.23;90.09;99989.11;106073;1270;22612;-65
2022/08/14 03:26:32;;;;;;;19.60;10.80;;;;;;;18.20;90.13;99984.48;106045;1270;24349;-65
2022/08/14 03:29:04;;;;;;;20.40;11.70;;;;;;;18.17;90.70;99982.94;106498;1270;22635;-65
2022/08/14 03:31:37;;;;;;;24.30;12.90;;;;;;;18.15;91.25;99978.90;106050;1270;24289;-65
2022/08/14 03:34:10;;;;;;;21.40;12.50;;;;;;;18.12;91.65;99975.72;106083;1270;22576;-65
2022/08/14 03:36:42;;;;;;;21.40;12.40;;;;;;;18.10;91.73;99979.25;106279;1270;25378;-65
2022/08/14 03:39:14;;;;;;;24.20;13.50;;;;;;;18.11;91.64;99973.83;106112;1270;22619;-66
2022/08/14 03:41:46;;;;;;;22.70;12.60;;;;;;;18.11;91.49;99971.01;107696;1269;25500;-65
2022/08/14 03:44:18;;;;;;;22.10;11.30;;;;;;;18.11;91.43;99974.23;105975;1270;25338;-66
2022/08/14 03:46:50;;;;;;;20.90;11.50;;;;;;;18.10;91.41;99976.52;106041;1270;22616;-65
2022/08/14 03:49:24;;;;;;;24.70;11.50;;;;;;;18.09;91.36;99979.06;105919;1270;22751;-65
2022/08/14 03:51:57;;;;;;;20.70;11.70;;;;;;;18.08;91.07;99983.44;106039;1270;24319;-65
2022/08/14 03:54:29;;;;;;;21.00;10.60;;;;;;;18.06;91.00;99979.77;105927;1270;22728;-65
2022/08/14 03:57:00;;;;;;;22.80;11.80;;;;;;;18.03;90.92;99979.55;106157;1270;25332;-65
2022/08/14 03:59:33;;;;;;;19.80;11.20;;;;;;;18.01;91.03;99975.48;106002;1270;22528;-66
2022/08/14 04:02:04;;;;;;;23.20;12.90;;;;;;;17.99;91.12;99974.43;106046;1270;25486;-65
2022/08/14 04:04:36;;;;;;;19.40;11.10;;;;;;;17.98;91.16;99971.26;106116;1270;22992;-66
2022/08/14 04:07:09;;;;;;;20.80;11.80;;;;;;;17.97;91.07;99974.92;105861;1270;22561;-65
2022/08/14 04:09:41;;;;;;;20.60;10.40;;;;;;;17.96;91.21;99973.62;105894;1270;25462;-65
2022/08/14 04:12:12;;;;;;;18.80;10.80;;;;;;;17.94;91.27;99970.04;106119;1270;25108;-65
2022/08/14 04:14:44;;;;;;;22.10;11.20;;;;;;;17.94;91.29;99967.89;106063;1270;22776;-66
2022/08/14 04:17:15;;;;;;;23.00;12.60;;;;;;;17.93;91.66;99965.39;106105;1270;25723;-65
2022/08/14 04:19:47;;;;;;;23.90;11.30;;;;;;;17.94;91.84;99968.95;106249;1270;25615;-64
2022/08/14 04:22:20;;;;;;;22.60;12.20;;;;;;;17.98;91.93;99971.84;105961;1270;22609;-66
2022/08/14 04:24:53;;;;;;;22.20;12.90;;;;;;;17.99;92.07;99970.42;105968;1270;22550;-67
2022/08/14 04:27:25;;;;;;;21.30;12.20;;;;;;;18.02;92.25;99974.73;106103;1270;25341;-64
2022/08/14 04:29:57;;;;;;;26.20;15.00;;;;;;;18.03;92.51;99968.56;105941;1270;22551;-64
2022/08/14 04:32:29;;;;;;;22.50;14.40;;;;;;;18.05;92.94;99972.29;106158;1270;22630;-64
2022/08/14 04:35:01;;;;;;;25.60;13.50;;;;;;;18.05;93.07;99975.83;105999;1270;22554;-64
2022/08/14 04:46:01;;;;;;;22.60;12.80;;;;;;;18.17;93.46;99976.46;105791;1270;25376;-66
2022/08/14 04:48:33;;;;;;;23.30;14.20;;;;;;;18.21;93.60;99977.52;105824;1270;22535;-66
2022/08/14 04:51:16;;;;;;;23.80;13.30;;;;;;;18.25;93.72;99975.96;106021;1270;25347;-66
2022/08/14 04:53:49;;;;;;;22.80;13.70;;;;;;;18.30;93.83;99974.20;106054;1270;24446;-65
2022/08/14 04:56:23;;;;;;;23.60;13.40;;;;;;;18.34;94.09;99969.34;105912;1270;24123;-65
2022/08/14 04:59:04;;;;;;;26.80;13.00;;;;;;;18.37;94.17;99968.33;101874;1270;5495704;-67
2022/08/14 05:01:35;;;;;;;24.30;13.60;;;;;;;18.38;94.25;99961.71;106032;1270;22547;-65
2022/08/14 05:04:07;;;;;;;24.70;12.40;;;;;;;18.40;94.29;99962.41;106007;1270;22768;-65
2022/08/14 05:06:39;;;;;;;23.30;12.80;;;;;;;18.45;94.25;99960.55;105927;1268;22591;-66
2022/08/14 05:09:10;;;;;;;25.80;13.90;;;;;;;18.51;94.36;99961.58;106000;1270;25633;-65
2022/08/14 05:11:41;;;;;;;24.10;13.50;;;;;;;18.54;94.52;99961.52;105884;1270;22546;-66
2022/08/14 05:14:13;;;;;;;20.10;12.30;;;;;;;18.58;94.62;99964.33;105811;1270;22698;-66
2022/08/14 05:16:46;;;;;;;21.90;13.10;;;;;;;18.62;94.53;99959.69;105986;1270;25411;-66
2022/08/14 05:19:20;;;;;;;20.10;12.10;;;;;;;18.67;94.45;99958.89;105950;1270;23891;-66
2022/08/14 05:21:55;;;;;;;19.90;11.60;;;;;;;18.71;94.19;99961.36;105795;1270;24362;-66
2022/08/14 05:24:27;;;;;;;22.50;12.90;;;;;;;18.77;94.55;99952.88;106092;1270;27498;-66
2022/08/14 05:26:59;;;;;;;23.40;13.50;;;;;;;18.82;94.73;99951.75;106838;1270;22647;-65
2022/08/14 05:29:31;;;;;;;20.80;12.20;;;;;;;18.88;94.73;99946.95;106099;1270;22548;-66
2022/08/14 05:32:06;;;;;;;22.60;12.50;;;;;;;18.92;94.43;99951.81;106276;1270;24316;-66
2022/08/14 05:34:37;;;;;;;22.80;11.80;;;;;;;18.97;94.48;99947.65;106154;1270;25350;-66
2022/08/14 05:37:10;;;;;;;21.00;12.10;;;;;;;19.02;94.44;99944.94;105992;1270;22579;-65
2022/08/14 05:39:41;;;;;;;22.60;13.30;;;;;;;19.04;94.17;99946.89;106045;1270;25265;-65
2022/08/14 05:42:13;;;;;;;20.00;11.40;;;;;;;19.07;94.28;99940.10;106014;1270;22525;-66
2022/08/14 05:44:44;;;;;;;21.30;10.90;;;;;;;19.09;94.19;99946.02;105992;1270;22659;-67
2022/08/14 05:47:16;;;;;;;20.40;12.00;;;;;;;19.12;93.93;99947.35;106048;1270;22692;-66
2022/08/14 05:49:48;;;;;;;24.90;12.40;;;;;;;19.15;94.15;99947.04;106293;1270;23452;-66
2022/08/14 05:52:20;;;;;;;22.10;12.00;;;;;;;19.17;94.24;99951.06;106092;1270;23822;-66
2022/08/14 05:54:51;;;;;;;18.70;10.30;;;;;;;19.20;94.33;99950.05;105901;1270;25418;-65
2022/08/14 05:57:23;;;;;;;20.70;12.30;;;;;;;19.27;94.26;99948.28;106139;1270;24441;-65
2022/08/14 05:59:56;;;;;;;20.90;11.60;;;;;;;19.33;94.20;99948.11;106902;1270;24065;-65
2022/08/14 06:02:28;;;;;;;19.90;12.40;;;;;;;19.40;94.26;99945.51;106313;1270;25481;-65
2022/08/14 06:05:01;;;;;;;19.30;11.20;;;;;;;19.47;94.53;99947.66;105809;1270;24024;-66
2022/08/14 06:07:35;;;;;;;19.40;10.20;;;;;;;19.53;94.52;99941.94;106484;1270;25426;-66
2022/08/14 06:10:09;;;;;;;20.20;11.10;;;;;;;19.61;94.49;99938.35;106292;1269;25427;-65
2022/08/14 06:12:40;;;;;;;20.50;11.40;;;;;;;19.67;94.35;99931.41;106592;1270;22721;-68
2022/08/14 06:15:13;;;;;;;20.00;11.40;;;;;;;19.72;94.17;99931.15;105898;1270;25392;-66
2022/08/14 06:17:50;;;;;;;20.10;11.40;;;;;;;19.77;94.15;99929.32;106404;1269;22542;-65
2022/08/14 06:20:23;;;;;;;19.40;11.00;;;;;;;19.82;94.20;99920.50;106118;1270;24416;-66
2022/08/14 06:22:57;;;;;;;20.50;11.00;;;;;;;19.87;93.91;99919.71;105992;1270;23019;-66
2022/08/14 06:25:30;;;;;;;19.10;10.70;;;;;;;19.91;93.78;99922.26;106106;1270;22547;-65
2022/08/14 06:28:02;;;;;;;20.40;10.10;;;;;;;19.94;93.61;99920.42;106235;1269;25485;-67
2022/08/14 06:30:35;;;;;;;19.30;10.30;;;;;;;19.98;93.23;99923.01;105994;1270;22545;-66
2022/08/14 06:33:06;;;;;;;21.60;10.50;;;;;;;20.03;93.10;99918.24;105981;1270;24432;-67
2022/08/14 06:35:39;;;;;;;19.10;10.60;;;;;;;20.06;93.04;99920.17;106087;1270;22548;-66
2022/08/14 06:38:15;;;;;;;19.20;11.00;;;;;;;20.09;93.04;99915.78;105974;1270;25251;-66
2022/08/14 06:40:47;;;;;;;16.50;10.10;;;;;;;20.12;92.97;99918.38;105933;1270;22647;-67
2022/08/14 06:43:21;;;;;;;22.50;11.20;;;;;;;20.16;92.93;99911.94;106157;1269;26007;-67
2022/08/14 06:45:54;;;;;;;22.80;11.50;;;;;;;20.19;92.91;99911.83;106118;1270;22557;-66
2022/08/14 06:48:27;;;;;;;17.90;10.70;;;;;;;20.24;92.97;99907.82;106064;1270;26931;-68
2022/08/14 06:51:00;;;;;;;21.70;11.80;;;;;;;20.27;93.02;99911.13;106284;1270;25432;-66
2022/08/14 06:53:32;;;;;;;17.40;10.00;;;;;;;20.30;92.79;99916.41;106200;1270;22525;-67
2022/08/14 06:56:04;;;;;;;23.50;10.90;;;;;;;20.36;92.77;99918.27;106081;1268;22849;-66
2022/08/14 06:58:36;;;;;;;20.10;11.10;;;;;;;20.40;92.67;99915.99;106110;1270;22658;-66
2022/08/14 07:06:46;;;;;;;26.20;11.20;;;;;;;20.57;92.06;99910.64;105808;1270;22715;-66
2022/08/14 07:09:18;;;;;;;23.00;10.50;;;;;;;20.62;91.82;99912.08;106127;1270;25560;-68
2022/08/14 07:11:50;;;;;;;20.90;11.40;;;;;;;20.66;91.41;99915.92;106394;1268;22549;-66
2022/08/14 07:14:22;;;;;;;17.70;9.80;;;;;;;20.67;90.93;99916.34;106132;1270;22693;-67
2022/08/14 07:16:54;;;;;;;20.40;11.60;;;;;;;20.69;90.92;99913.14;106121;1270;24037;-67
2022/08/14 07:19:26;;;;;;;20.60;11.20;;;;;;;20.73;90.83;99908.44;106240;1270;24405;-67
2022/08/14 07:21:58;;;;;;;19.80;11.20;;;;;;;20.78;90.63;99909.20;106112;1270;22605;-66
2022/08/14 07:24:31;;;;;;;18.10;10.50;;;;;;;20.80;90.27;99910.23;105959;1268;25613;-68
2022/08/14 07:27:03;;;;;;;19.30;10.40;;;;;;;20.85;90.37;99906.67;106218;1270;23040;-66
2022/08/14 07:29:42;;;;;;;20.80;10.80;;;;;;;20.91;90.27;99908.81;105830;1270;22556;-67
2022/08/14 07:32:15;;;;;;;16.60;9.70;;;;;;;20.98;90.24;99904.23;107670;1268;22744;-67
2022/08/14 07:34:46;;;;;;;18.30;10.50;;;;;;;21.05;90.00;99903.13;106222;1270;22550;-69
2022/08/14 07:37:19;;;;;;;19.10;9.90;;;;;;;21.11;89.63;99896.31;105976;1270;22857;-67
2022/08/14 07:39:52;;;;;;;17.00;10.30;;;;;;;21.17;89.47;99890.89;106055;1268;24235;-67
2022/08/14 07:42:27;;;;;;;16.20;9.70;;;;;;;21.22;89.45;99885.91;106031;1270;22538;-66
2022/08/14 07:44:59;;;;;;;17.90;10.20;;;;;;;21.27;89.27;99891.34;106052;1270;22537;-67
2022/08/14 07:47:32;;;;;;;16.60;9.30;;;;;;;21.33;89.11;99891.52;106366;1269;24303;-67
2022/08/14 07:50:13;;;;;;;17.50;9.60;;;;;;;21.41;88.78;99888.33;105950;1270;25261;-66
2022/08/14 07:52:46;;;;;;;18.60;10.60;;;;;;;21.48;88.56;99891.42;106043;1270;22614;-66
2022/08/14 07:55:19;;;;;;;16.50;9.10;;;;;;;21.54;88.15;99890.46;105926;1270;25519;-66
2022/08/14 07:57:51;;;;;;;16.00;9.40;;;;;;;21.61;88.17;99889.41;105862;1270;22549;-66
2022/08/14 08:00:25;;;;;;;20.10;9.50;;;;;;;21.68;87.85;99888.14;106006;1270;22579;-67
2022/08/14 08:02:58;;;;;;;16.40;8.90;;;;;;;21.77;88.07;99887.97;105956;1270;26682;-67
2022/08/14 08:05:29;;;;;;;15.50;8.20;;;;;;;21.87;87.49;99880.55;106157;1270;24402;-68
2022/08/14 08:08:03;;;;;;;18.30;8.70;;;;;;;21.94;87.09;99881.70;106176;1270;24290;-68
2022/08/14 08:10:40;;;;;;;16.90;9.00;;;;;;;22.02;86.56;99879.73;106239;1270;22693;-67
2022/08/14 08:13:18;;;;;;;16.90;7.90;;;;;;;22.09;86.77;99879.73;106062;1270;22692;-67
2022/08/14 08:15:52;;;;;;;15.00;8.00;;;;;;;22.19;85.98;99876.48;106065;1270;25277;-67
2022/08/14 08:18:25;;;;;;;16.30;7.50;;;;;;;22.26;85.81;99869.54;106158;1270;22556;-66
2022/08/14 08:20:58;;;;;;;16.00;8.00;;;;;;;22.34;85.42;99870.94;106160;1270;26302;-67
2022/08/14 08:23:32;;;;;;;15.00;7.30;;;;;;;22.42;85.80;99867.06;106394;1270;25356;-68
2022/08/14 08:26:04;;;;;;;16.10;7.30;;;;;;;22.52;84.85;99870.27;106495;1261;22769;-67
2022/08/14 08:28:36;;;;;;;14.50;6.10;;;;;;;22.61;84.46;99871.05;106112;1267;25292;-68
2022/08/14 08:31:11;;;;;;;13.00;7.00;;;;;;;22.72;84.62;99870.48;106155;1267;22847;-67
2022/08/14 08:33:43;;;;;;;14.90;6.80;;;;;;;22.81;83.44;99866.48;106141;1269;22531;-67
2022/08/14 08:36:15;;;;;;;13.50;6.60;;;;;;;22.88;83.00;99865.86;106028;1270;25610;-67
2022/08/14 08:38:48;;;;;;;10.50;5.60;;;;;;;22.98;82.57;99859.98;105771;1270;22550;-67
2022/08/14 08:41:20;;;;;;;14.20;6.80;;;;;;;23.04;82.22;99854.98;106499;1270;22705;-66
2022/08/14 08:43:53;;;;;;;15.00;6.60;;;;;;;23.13;82.37;99852.34;106018;1270;22752;-66
2022/08/14 08:46:25;;;;;;;13.00;5.90;;;;;;;23.20;81.88;99848.32;106117;1270;26624;-67
2022/08/14 08:48:59;;;;;;;10.30;5.20;;;;;;;23.22;80.49;99851.80;105703;1270;22703;-65
2022/08/14 08:51:32;;;;;;;13.10;4.70;;;;;;;23.19;79.86;99851.36;106991;1268;25479;-67
2022/08/14 08:54:07;;;;;;;14.60;4.90;;;;;;;23.16;79.91;99854.29;105965;1270;25310;-64
2022/08/14 08:56:43;;;;;;;12.50;5.00;;;;;;;23.14;80.16;99850.58;106091;1270;24237;-64
2022/08/14 08:59:24;;;;;;;13.60;5.60;;;;;;;23.13;79.67;99847.63;106090;1270;22689;-63
2022/08/14 09:01:57;;;;;;;16.00;6.50;;;;;;;23.08;80.02;99845.18;105807;1271;24320;-64
2022/08/14 09:04:34;;;;;;;13.90;6.30;;;;;;;23.06;80.56;99842.64;106285;1270;22548;-65
2022/08/14 09:07:06;;;;;;;18.00;7.20;;;;;;;23.06;80.62;99844.77;105811;1270;25289;-64
2022/08/14 09:09:50;;;;;;;14.10;7.40;;;;;;;23.07;81.48;99844.00;105869;1270;24320;-65
2022/08/14 09:12:22;;;;;;;18.80;7.90;;;;;;;23.06;81.57;99848.15;105919;1270;22531;-64
2022/08/14 09:14:54;;;;;;;14.00;7.40;;;;;;;23.01;81.87;99845.73;106039;1270;22762;-64
2022/08/14 09:17:26;;;;;;;13.30;6.70;;;;;;;22.98;82.05;99843.05;106142;1269;22525;-63
2022/08/14 09:20:00;;;;;;;15.80;7.20;;;;;;;22.93;81.87;99840.57;105840;1270;22695;-64
2022/08/14 09:22:32;;;;;;;11.90;6.10;;;;;;;22.92;82.03;99838.07;105983;1270;22556;-64
2022/08/14 09:25:05;;;;;;;14.20;5.70;;;;;;;22.89;82.10;99838.23;105987;1270;22816;-66
2022/08/14 09:27:38;;;;;;;12.40;6.10;;;;;;;22.91;81.96;99838.21;106386;1270;24230;-66
2022/08/14 09:30:12;;;;;;;12.90;6.50;;;;;;;22.91;81.82;99840.62;106058;1270;22542;-63
2022/08/14 09:32:56;;;;;;;13.70;6.00;;;;;;;22.90;82.08;99839.70;106127;1270;22555;-66
2022/08/14 09:35:43;;;;;;;17.80;6.90;;;;;;;22.92;82.03;99838.30;105973;1270;22660;-65
2022/08/14 09:38:25;;;;;;;11.60;5.90;;;;;;;22.90;81.89;99833.25;106544;1270;22567;-64
2022/08/14 09:41:11;;;;;;;12.30;6.40;;;;;;;22.85;81.94;99830.20;106025;1270;24279;-66
2022/08/14 09:43:52;;;;;;;12.40;6.10;;;;;;;22.85;82.66;99829.34;105840;1270;22535;-67
2022/08/14 09:46:26;;;;;;;12.10;5.10;;;;;;;22.84;82.78;99828.65;106034;1270;22562;-65
2022/08/14 09:49:04;;;;;;;14.50;5.30;;;;;;;22.82;82.59;99825.39;106087;1270;22795;-65
2022/08/14 09:51:40;;;;;;;12.50;5.80;;;;;;;22.78;82.44;99821.23;106012;1270;25713;-68
2022/08/14 09:54:13;;;;;;;12.10;4.10;;;;;;;22.78;82.91;99820.28;105977;1270;24319;-65
2022/08/14 09:56:50;;;;;;;14.30;5.80;;;;;;;22.71;82.76;99819.50;106703;1258;24327;-53
2022/08/14 09:59:26;;;;;;;13.30;5.70;;;;;;;22.70;83.05;99816.81;105961;1270;22996;-53
2022/08/14 10:01:58;;;;;;;16.20;8.10;;;;;;;22.70;83.04;99815.14;105721;1270;22534;-60
2022/08/14 10:04:30;;;;;;;13.70;6.70;;;;;;;22.72;83.28;99813.33;105965;1268;22538;-54
2022/08/14 10:07:02;;;;;;;13.70;5.90;;;;;;;22.73;83.53;99815.93;105819;1270;22564;-53
2022/08/14 10:09:34;;;;;;;14.20;6.20;;;;;;;22.73;83.52;99812.85;105959;1268;22697;-59
2022/08/14 10:12:06;;;;;;;15.40;6.30;;;;;;;22.79;83.40;99817.38;105781;1268;25410;-57
2022/08/14 10:14:38;;;;;;;12.30;6.80;;;;;;;22.83;83.07;99815.55;105975;1270;22690;-58
2022/08/14 10:17:10;;;;;;;14.00;6.90;;;;;;;22.86;83.11;99814.06;105923;1268;26576;-51
2022/08/14 10:19:51;;;;;;;13.30;7.50;;;;;;;22.91;82.82;99818.63;105967;1270;25201;-54
2022/08/14 10:22:29;;;;;;;16.20;5.80;;;;;;;22.96;82.79;99818.54;105994;1270;22709;-53
2022/08/14 10:25:14;;;;;;;16.70;6.50;;;;;;;23.00;83.26;99816.13;105932;1270;22589;-52
2022/08/14 10:27:57;;;;;;;13.30;5.60;;;;;;;23.04;82.51;99818.52;105995;1270;22685;-56
2022/08/14 10:30:36;;;;;;;15.00;6.20;;;;;;;23.01;82.13;99816.55;106012;1270;25242;-55
2022/08/14 10:33:08;;;;;;;13.20;6.00;;;;;;;23.02;81.89;99816.92;106027;1270;25485;-53
2022/08/14 10:35:44;;;;;;;14.80;6.70;;;;;;;23.08;81.97;99817.47;105944;1268;22607;-57
2022/08/14 10:38:26;;;;;;;12.00;6.40;;;;;;;23.17;82.21;99812.29;105918;1270;24432;-54
2022/08/14 10:41:11;;;;;;;16.60;6.00;;;;;;;23.26;81.87;99805.94;105998;1270;24094;-53
2022/08/14 10:43:45;;;;;;;13.60;6.40;;;;;;;23.39;81.84;99802.83;105864;1270;25481;-50
2022/08/14 10:46:19;;;;;;;12.30;6.60;;;;;;;23.48;81.61;99799.54;106030;1270;22536;-53
2022/08/14 10:49:01;;;;;;;13.30;6.70;;;;;;;23.57;81.42;99795.61;105923;1270;22576;-55
2022/08/14 10:51:34;;;;;;;12.70;6.60;;;;;;;23.60;80.33;99797.41;105865;1268;22850;-56
2022/08/14 10:54:11;;;;;;;15.60;6.50;;;;;;;23.54;80.74;99792.05;106131;1269;27065;-54
2022/08/14 10:56:44;;;;;;;16.00;6.90;;;;;;;23.50;81.04;99792.71;106034;1270;22781;-55
2022/08/14 10:59:16;;;;;;;12.90;7.40;;;;;;;23.49;81.02;99788.63;106173;1270;22556;-55
2022/08/14 11:01:49;;;;;;;14.20;6.80;;;;;;;23.49;80.92;99794.60;106002;1268;26507;-56
2022/08/14 11:04:27;;;;;;;25.70;9.80;;;;;;;23.45;81.01;99797.66;106004;1270;22550;-60
2022/08/14 11:06:59;;;;;;;17.10;8.30;;;;;;;23.37;81.81;99803.33;105930;1270;25124;-64
2022/08/14 11:09:31;;;;;;;18.80;9.30;;;;;;;23.24;82.26;99802.35;105912;1270;22534;-61
2022/08/14 11:12:05;;;;;;;21.00;9.50;;;;;;;23.07;82.40;99800.98;105906;1270;25538;-62
2022/08/14 11:14:37;;;;;;;15.80;8.30;;;;;;;22.94;82.67;99800.79;106147;1270;24393;-58
2022/08/14 11:17:10;;;;;;;16.20;9.10;;;;;;;22.88;83.01;99796.30;105984;1270;25343;-61
2022/08/14 11:19:42;;;;;;;21.90;9.60;;;;;;;22.82;83.60;99793.89;105962;1270;22550;-63
2022/08/14 11:22:15;;;;;;;24.00;10.10;;;;;;;22.67;83.23;99791.93;105977;1270;25523;-58
2022/08/14 11:24:50;;;;;;;18.90;10.10;;;;;;;22.57;83.03;99796.46;106080;1270;22540;-61
2022/08/14 11:27:25;;;;;;;16.70;8.90;;;;;;;22.56;83.76;99798.88;105832;1270;22701;-58
2022/08/14 11:30:00;;;;;;;16.60;7.30;;;;;;;22.54;83.87;99798.17;105929;1270;24278;-59
2022/08/14 11:32:33;;;;;;;22.40;7.70;;;;;;;22.40;83.91;99797.45;106101;1270;22695;-54
2022/08/14 11:35:06;;;;;;;14.10;7.60;;;;;;;22.36;84.38;99796.31;106107;1270;22547;-56
2022/08/14 11:37:38;;;;;;;16.90;8.10;;;;;;;22.30;85.14;99792.80;105857;1270;25313;-54
2022/08/14 11:40:18;;;;;;;18.00;9.10;;;;;;;22.28;85.75;99787.11;105905;1270;24304;-58
2022/08/14 11:42:54;;;;;;;17.40;8.30;;;;;;;22.33;86.73;99785.36;106171;1270;27338;-57
2022/08/14 11:45:33;;;;;;;13.20;7.90;;;;;;;22.38;86.84;99791.04;105925;1270;22574;-57
2022/08/14 11:48:17;;;;;;;17.50;9.80;;;;;;;22.43;87.32;99788.30;106314;1270;26118;-58
2022/08/14 11:50:50;;;;;;;15.10;8.80;;;;;;;22.45;87.27;99787.27;105907;1270;24422;-53
2022/08/14 11:53:29;;;;;;;15.00;7.50;;;;;;;22.45;87.10;99785.50;106001;1270;22532;-55
2022/08/14 11:56:03;;;;;;;12.60;6.60;;;;;;;22.40;86.54;99784.16;105933;1270;25237;-55
2022/08/14 11:58:36;;;;;;;13.20;7.60;;;;;;;22.36;86.34;99777.58;106081;1268;25350;-51
2022/08/14 12:01:09;;;;;;;14.80;7.50;;;;;;;22.38;86.38;99774.73;106010;1270;24369;-57